createdAt,value
2022-12-20T00:02:01.681Z,8.68
2022-12-20T00:04:32.104Z,8.70
2022-12-20T00:07:02.081Z,8.75
2022-12-20T00:09:49.432Z,8.78
2022-12-20T00:12:17.564Z,8.78
2022-12-20T00:14:45.609Z,8.81
2022-12-20T00:17:13.416Z,8.87
2022-12-20T00:19:44.950Z,8.86
2022-12-20T00:22:13.928Z,8.90
2022-12-20T00:24:44.987Z,8.94
2022-12-20T00:27:13.966Z,9.08
2022-12-20T00:29:42.023Z,9.15
2022-12-20T00:32:09.902Z,9.13
2022-12-20T00:34:39.102Z,9.12
2022-12-20T00:37:08.902Z,9.09
2022-12-20T00:39:36.753Z,9.11
2022-12-20T00:42:04.901Z,8.98
2022-12-20T00:44:32.941Z,9.13
2022-12-20T00:47:01.748Z,9.06
2022-12-20T00:49:33.418Z,9.11
2022-12-20T00:52:01.327Z,9.08
2022-12-20T00:54:30.447Z,9.14
2022-12-20T00:56:59.630Z,9.14
2022-12-20T00:59:28.308Z,9.04
2022-12-20T01:01:56.501Z,9.10
2022-12-20T01:04:24.377Z,9.18
2022-12-20T01:06:52.203Z,9.20
2022-12-20T01:09:20.111Z,9.24
2022-12-20T01:11:50.553Z,9.32
2022-12-20T01:14:18.851Z,9.28
2022-12-20T01:16:50.709Z,9.31
2022-12-20T01:19:19.699Z,9.26
2022-12-20T01:21:48.021Z,9.24
2022-12-20T01:24:17.574Z,9.13
2022-12-20T01:26:47.129Z,9.08
2022-12-20T01:29:16.632Z,9.25
2022-12-20T01:31:45.482Z,9.31
2022-12-20T01:34:13.605Z,9.32
2022-12-20T01:36:42.281Z,9.33
2022-12-20T01:39:13.261Z,9.34
2022-12-20T01:41:45.409Z,9.27
2022-12-20T01:44:55.560Z,9.27
2022-12-20T01:47:25.782Z,9.25
2022-12-20T01:49:55.909Z,9.35
2022-12-20T01:52:33.416Z,9.33
2022-12-20T01:55:06.664Z,9.36
2022-12-20T01:57:43.133Z,9.39
2022-12-20T02:00:14.241Z,9.33
2022-12-20T02:02:43.864Z,9.29
2022-12-20T02:05:14.738Z,9.34
2022-12-20T02:07:45.190Z,9.39
2022-12-20T02:10:17.396Z,9.42
2022-12-20T02:12:46.964Z,9.50
2022-12-20T02:15:30.184Z,9.39
2022-12-20T02:18:10.698Z,9.44
2022-12-20T02:21:09.181Z,9.46
2022-12-20T02:24:20.148Z,9.39
2022-12-20T02:27:27.099Z,9.41
2022-12-20T02:30:13.170Z,9.38
2022-12-20T02:32:47.572Z,9.33
2022-12-20T02:35:22.829Z,9.41
2022-12-20T02:37:53.436Z,9.46
2022-12-20T02:40:25.567Z,9.27
2022-12-20T02:42:58.497Z,9.30
2022-12-20T02:45:38.243Z,9.24
2022-12-20T02:48:10.906Z,9.25
2022-12-20T02:50:42.544Z,9.17
2022-12-20T02:53:13.067Z,9.03
2022-12-20T02:55:47.456Z,8.89
2022-12-20T02:58:26.487Z,8.82
2022-12-20T03:01:17.123Z,8.74
2022-12-20T03:03:45.782Z,8.79
2022-12-20T03:06:16.531Z,8.69
2022-12-20T03:08:46.624Z,8.64
2022-12-20T03:11:14.899Z,8.66
2022-12-20T03:13:42.933Z,8.61
2022-12-20T03:16:14.424Z,8.63
2022-12-20T03:18:46.304Z,8.64
2022-12-20T03:21:14.661Z,8.64
2022-12-20T03:23:42.938Z,8.69
2022-12-20T03:26:10.881Z,8.68
2022-12-20T03:28:41.315Z,8.66
2022-12-20T03:31:09.363Z,8.65
2022-12-20T03:33:41.729Z,8.65
2022-12-20T03:36:09.957Z,8.63
2022-12-20T03:38:41.391Z,8.65
2022-12-20T03:41:09.388Z,8.59
2022-12-20T03:43:39.818Z,8.66
2022-12-20T03:46:09.970Z,8.60
2022-12-20T03:48:39.635Z,8.64
2022-12-20T03:51:11.976Z,8.70
2022-12-20T03:53:39.793Z,8.65
2022-12-20T03:56:09.347Z,8.65
2022-12-20T03:58:39.377Z,8.64
2022-12-20T04:01:49.742Z,8.66
2022-12-20T04:04:19.986Z,8.62
2022-12-20T04:07:03.851Z,8.63
2022-12-20T04:09:32.909Z,8.59
2022-12-20T04:12:06.126Z,8.63
2022-12-20T04:14:33.981Z,8.67
2022-12-20T04:17:01.877Z,8.73
2022-12-20T04:19:31.436Z,8.77
2022-12-20T04:22:04.589Z,8.79
2022-12-20T04:24:36.325Z,8.81
2022-12-20T04:27:12.878Z,8.83
2022-12-20T04:29:40.641Z,8.81
2022-12-20T04:32:09.600Z,8.84
2022-12-20T04:34:39.033Z,8.88
2022-12-20T04:37:12.894Z,8.85
2022-12-20T04:39:40.813Z,8.85
2022-12-20T04:42:08.914Z,8.90
2022-12-20T04:44:37.257Z,8.93
2022-12-20T04:47:07.513Z,8.99
2022-12-20T04:49:35.411Z,9.03
2022-12-20T04:52:21.786Z,9.07
2022-12-20T04:54:51.734Z,9.08
2022-12-20T04:57:30.580Z,9.07
2022-12-20T04:59:59.969Z,9.12
2022-12-20T05:02:34.875Z,9.03
2022-12-20T05:05:03.906Z,9.08
2022-12-20T05:07:34.308Z,9.11
2022-12-20T05:10:12.471Z,9.10
2022-12-20T05:12:40.344Z,9.19
2022-12-20T05:15:09.659Z,9.23
2022-12-20T05:17:46.075Z,9.25
2022-12-20T05:20:15.203Z,9.26
2022-12-20T05:23:01.761Z,9.28
2022-12-20T05:25:44.442Z,9.27
2022-12-20T05:28:12.236Z,9.27
2022-12-20T05:30:40.639Z,9.35
2022-12-20T05:33:08.853Z,9.34
2022-12-20T05:35:37.169Z,9.39
2022-12-20T05:38:06.785Z,9.36
2022-12-20T05:40:40.169Z,9.39
2022-12-20T05:43:10.369Z,9.37
2022-12-20T05:45:39.689Z,9.45
2022-12-20T05:48:07.976Z,9.47
2022-12-20T05:50:35.994Z,9.53
2022-12-20T05:53:11.548Z,9.53
2022-12-20T05:55:46.532Z,9.49
2022-12-20T05:58:14.720Z,9.50
2022-12-20T06:00:44.154Z,9.49
2022-12-20T06:03:16.298Z,9.51
2022-12-20T06:05:44.952Z,9.56
2022-12-20T06:08:14.530Z,9.61
2022-12-20T06:10:43.751Z,9.63
2022-12-20T06:13:11.695Z,9.66
2022-12-20T06:15:44.648Z,9.72
2022-12-20T06:18:12.539Z,9.73
2022-12-20T06:20:40.547Z,9.85
2022-12-20T06:23:10.703Z,9.86
2022-12-20T06:25:41.825Z,9.86
2022-12-20T06:28:12.840Z,9.82
2022-12-20T06:30:40.726Z,9.91
2022-12-20T06:33:08.624Z,9.99
2022-12-20T06:35:37.331Z,10.01
2022-12-20T06:38:08.178Z,9.98
2022-12-20T06:40:36.138Z,10.04
2022-12-20T06:43:03.984Z,9.95
2022-12-20T06:45:39.312Z,9.81
2022-12-20T06:48:09.231Z,9.73
2022-12-20T06:50:37.145Z,9.66
2022-12-20T06:53:05.033Z,9.59
2022-12-20T06:55:33.560Z,9.61
2022-12-20T06:58:06.334Z,9.56
2022-12-20T07:00:37.191Z,9.54
2022-12-20T07:03:06.034Z,9.50
2022-12-20T07:05:35.068Z,9.45
2022-12-20T07:08:09.143Z,9.46
2022-12-20T07:10:38.366Z,9.47
2022-12-20T07:13:09.219Z,9.51
2022-12-20T07:15:39.812Z,9.45
2022-12-20T07:18:09.031Z,9.45
2022-12-20T07:20:37.012Z,9.50
2022-12-20T07:23:08.648Z,9.51
2022-12-20T07:25:37.149Z,9.55
2022-12-20T07:28:05.292Z,9.52
2022-12-20T07:30:36.043Z,9.54
2022-12-20T07:33:13.784Z,9.49
2022-12-20T07:38:27.703Z,9.60
2022-12-20T07:40:55.659Z,9.61
2022-12-20T07:43:23.784Z,9.62
2022-12-20T07:45:55.844Z,9.64
2022-12-20T07:48:25.688Z,9.65
2022-12-20T07:51:01.770Z,9.68
2022-12-20T07:53:47.458Z,9.71
2022-12-20T07:56:22.400Z,9.68
2022-12-20T07:58:56.266Z,9.69
2022-12-20T08:01:33.588Z,9.70
2022-12-20T08:04:12.861Z,9.70
2022-12-20T08:06:45.005Z,9.70
2022-12-20T08:09:17.262Z,9.70
2022-12-20T08:11:52.472Z,9.68
2022-12-20T08:14:32.791Z,9.67
2022-12-20T08:17:05.873Z,9.74
2022-12-20T08:19:38.807Z,9.69
2022-12-20T08:22:09.980Z,9.76
2022-12-20T08:24:41.654Z,9.75
2022-12-20T08:27:10.577Z,9.81
2022-12-20T08:29:38.539Z,9.77
2022-12-20T08:32:08.507Z,9.80
2022-12-20T08:34:41.197Z,9.83
2022-12-20T08:37:14.761Z,9.86
2022-12-20T08:39:44.497Z,9.88
2022-12-20T08:42:13.074Z,9.83
2022-12-20T08:44:43.213Z,9.89
2022-12-20T08:47:11.671Z,9.79
2022-12-20T08:49:47.169Z,9.87
2022-12-20T08:52:15.575Z,9.91
2022-12-20T08:54:44.544Z,9.90
2022-12-20T08:57:12.660Z,9.86
2022-12-20T08:59:41.561Z,9.87
2022-12-20T09:02:09.603Z,9.82
2022-12-20T09:04:41.380Z,9.86
2022-12-20T09:07:13.542Z,9.88
2022-12-20T09:09:41.982Z,9.84
2022-12-20T09:12:11.460Z,9.87
2022-12-20T09:14:39.249Z,9.86
2022-12-20T09:17:07.552Z,9.93
2022-12-20T09:19:35.626Z,9.97
2022-12-20T09:22:04.338Z,9.99
2022-12-20T09:24:34.822Z,10.10
2022-12-20T09:27:02.731Z,10.14
2022-12-20T09:29:35.471Z,10.19
2022-12-20T09:32:05.998Z,10.21
2022-12-20T09:34:35.213Z,10.29
2022-12-20T09:37:08.318Z,10.27
2022-12-20T09:39:40.619Z,10.24
2022-12-20T09:42:10.350Z,10.26
2022-12-20T09:44:42.205Z,10.25
2022-12-20T09:47:16.759Z,10.32
2022-12-20T09:49:49.341Z,10.24
2022-12-20T09:52:29.898Z,10.34
2022-12-20T09:55:06.687Z,10.34
2022-12-20T09:57:47.630Z,10.35
2022-12-20T10:00:17.864Z,10.33
2022-12-20T10:03:09.579Z,10.40
2022-12-20T10:05:42.034Z,10.34
2022-12-20T10:08:19.523Z,10.31
2022-12-20T10:11:06.593Z,10.29
2022-12-20T10:13:51.380Z,10.21
2022-12-20T10:16:34.211Z,10.17
2022-12-20T10:19:19.452Z,10.13
2022-12-20T10:21:55.891Z,10.08
2022-12-20T10:24:32.725Z,10.04
2022-12-20T10:27:16.001Z,9.98
2022-12-20T10:29:44.751Z,9.98
2022-12-20T10:32:22.405Z,9.97
2022-12-20T10:34:56.983Z,10.08
2022-12-20T10:37:25.153Z,10.05
2022-12-20T10:39:55.473Z,10.04
2022-12-20T10:42:37.307Z,10.07
2022-12-20T10:45:34.118Z,10.08
2022-12-20T10:48:06.364Z,10.09
2022-12-20T10:50:35.371Z,10.02
2022-12-20T10:53:25.614Z,10.01
2022-12-20T10:55:57.081Z,10.02
2022-12-20T10:58:35.242Z,10.01
2022-12-20T11:01:13.725Z,9.93
2022-12-20T11:04:00.716Z,10.00
2022-12-20T11:06:46.884Z,9.99
2022-12-20T11:09:31.048Z,10.05
2022-12-20T11:12:07.242Z,10.05
2022-12-20T11:14:42.140Z,10.08
2022-12-20T11:17:23.105Z,10.06
2022-12-20T11:20:13.651Z,10.10
2022-12-20T11:23:00.396Z,10.14
2022-12-20T11:25:52.759Z,10.15
2022-12-20T11:28:39.158Z,10.19
2022-12-20T11:31:25.815Z,10.24
2022-12-20T11:34:08.474Z,10.24
2022-12-20T11:37:00.356Z,10.22
2022-12-20T11:39:33.959Z,10.22
2022-12-20T11:42:11.102Z,10.23
2022-12-20T11:45:06.617Z,10.21
2022-12-20T11:47:58.131Z,10.21
2022-12-20T11:50:41.438Z,10.23
2022-12-20T11:53:17.994Z,10.22
2022-12-20T11:55:50.363Z,10.22
2022-12-20T11:58:22.665Z,10.21
2022-12-20T12:00:58.352Z,10.19
2022-12-20T12:03:39.361Z,10.25
2022-12-20T12:06:21.065Z,10.22
2022-12-20T12:08:54.558Z,10.25
2022-12-20T12:14:31.428Z,10.22
2022-12-20T12:17:21.189Z,10.16
2022-12-20T12:19:58.407Z,10.12
2022-12-20T12:22:38.631Z,10.12
2022-12-20T12:25:18.474Z,10.07
2022-12-20T12:27:46.842Z,10.06
2022-12-20T12:30:17.627Z,10.03
2022-12-20T12:32:51.975Z,10.01
2022-12-20T12:35:46.872Z,10.02
2022-12-20T12:38:37.449Z,9.96
2022-12-20T12:41:48.076Z,9.96
2022-12-20T12:44:35.638Z,9.90
2022-12-20T12:47:08.079Z,9.94
2022-12-20T12:49:39.818Z,9.95
2022-12-20T12:52:35.467Z,9.94
2022-12-20T12:55:04.094Z,9.95
2022-12-20T12:57:58.065Z,9.96
2022-12-20T13:00:51.365Z,9.98
2022-12-20T13:03:42.230Z,9.93
2022-12-20T13:06:58.871Z,9.94
2022-12-20T13:09:44.745Z,9.92
2022-12-20T13:12:50.296Z,9.94
2022-12-20T13:15:53.318Z,9.95
2022-12-20T13:18:29.312Z,9.95
2022-12-20T13:21:33.656Z,9.99
2022-12-20T13:24:38.335Z,10.01
2022-12-20T13:27:39.293Z,9.99
2022-12-20T13:30:28.329Z,10.00
2022-12-20T13:33:24.174Z,10.01
2022-12-20T13:36:35.649Z,9.96
2022-12-20T13:39:26.731Z,10.06
2022-12-20T13:42:17.486Z,10.06
2022-12-20T13:44:48.513Z,10.01
2022-12-20T13:47:35.932Z,10.01
2022-12-20T13:50:23.336Z,10.02
2022-12-20T13:52:53.012Z,10.01
2022-12-20T13:55:33.595Z,9.98
2022-12-20T13:58:08.975Z,10.01
2022-12-20T14:00:42.562Z,10.04
2022-12-20T14:03:41.774Z,10.04
2022-12-20T14:06:13.586Z,10.08
2022-12-20T14:08:49.968Z,10.06
2022-12-20T14:11:21.610Z,10.12
2022-12-20T14:14:02.229Z,10.06
2022-12-20T14:16:32.045Z,10.13
2022-12-20T14:19:08.005Z,10.12
2022-12-20T14:21:38.205Z,10.12
2022-12-20T14:24:07.467Z,10.08
2022-12-20T14:26:41.511Z,10.12
2022-12-20T14:29:16.073Z,10.12
2022-12-20T14:31:46.683Z,10.04
2022-12-20T14:34:18.885Z,10.08
2022-12-20T14:36:48.668Z,10.09
2022-12-20T14:39:30.713Z,10.11
2022-12-20T14:42:00.052Z,10.12
2022-12-20T14:44:31.844Z,10.10
2022-12-20T14:47:06.185Z,10.13
2022-12-20T14:49:36.877Z,10.12
2022-12-20T14:52:16.113Z,10.14
2022-12-20T14:57:44.715Z,10.15
2022-12-20T15:00:22.589Z,10.18
2022-12-20T15:03:02.757Z,10.16
2022-12-20T15:05:42.158Z,10.16
2022-12-20T15:08:19.644Z,10.08
2022-12-20T15:10:55.867Z,10.18
2022-12-20T15:13:30.055Z,10.12
2022-12-20T15:16:02.493Z,10.13
2022-12-20T15:18:30.503Z,10.11
2022-12-20T15:21:05.397Z,10.11
2022-12-20T15:23:35.842Z,10.10
2022-12-20T15:26:05.794Z,10.08
2022-12-20T15:28:34.702Z,10.00
2022-12-20T15:31:05.940Z,10.06
2022-12-20T15:33:45.780Z,10.04
2022-12-20T15:36:19.451Z,10.01
2022-12-20T15:39:12.188Z,9.94
2022-12-20T15:41:44.563Z,9.96
2022-12-20T15:44:18.981Z,10.03
2022-12-20T15:46:53.010Z,9.92
2022-12-20T15:49:24.166Z,9.94
2022-12-20T15:51:59.362Z,10.06
2022-12-20T15:54:31.460Z,9.94
2022-12-20T15:57:03.353Z,10.06
2022-12-20T15:59:59.059Z,10.05
2022-12-20T16:02:29.320Z,9.90
2022-12-20T16:04:59.477Z,10.02
2022-12-20T16:07:28.575Z,10.00
2022-12-20T16:09:56.535Z,9.98
2022-12-20T16:12:50.902Z,10.02
2022-12-20T16:15:30.249Z,10.01
2022-12-20T16:18:02.888Z,9.96
2022-12-20T16:20:35.830Z,10.02
2022-12-20T16:23:19.579Z,10.04
2022-12-20T16:25:54.475Z,10.03
2022-12-20T16:28:38.329Z,10.01
2022-12-20T16:31:13.492Z,10.02
2022-12-20T16:33:43.736Z,10.02
2022-12-20T16:36:14.044Z,10.03
2022-12-20T16:38:43.374Z,10.04
2022-12-20T16:41:14.766Z,9.98
2022-12-20T16:43:44.246Z,10.01
2022-12-20T16:46:13.726Z,10.05
2022-12-20T16:48:43.843Z,10.03
2022-12-20T16:51:26.340Z,10.06
2022-12-20T16:56:45.871Z,10.08
2022-12-20T16:59:20.738Z,10.04
2022-12-20T17:01:52.768Z,10.03
2022-12-20T17:04:27.067Z,10.03
2022-12-20T17:06:56.123Z,10.02
2022-12-20T17:12:16.226Z,10.03
2022-12-20T17:14:44.070Z,9.96
2022-12-20T17:17:11.991Z,10.00
2022-12-20T17:19:41.336Z,9.99
2022-12-20T17:24:57.636Z,9.95
2022-12-20T17:27:25.754Z,9.99
2022-12-20T17:29:53.883Z,9.97
2022-12-20T17:32:24.481Z,9.96
2022-12-20T17:34:55.231Z,9.95
2022-12-20T17:37:24.654Z,9.95
2022-12-20T17:39:52.668Z,9.93
2022-12-20T17:42:23.246Z,9.98
2022-12-20T17:44:56.248Z,9.96
2022-12-20T17:47:24.280Z,9.97
2022-12-20T17:49:53.312Z,9.91
2022-12-20T17:52:22.668Z,9.93
2022-12-20T17:54:50.714Z,9.93
2022-12-20T17:57:20.956Z,9.91
2022-12-20T17:59:55.045Z,9.91
2022-12-20T18:02:25.091Z,9.94
2022-12-20T18:04:53.435Z,9.87
2022-12-20T18:07:22.683Z,9.89
2022-12-20T18:09:50.961Z,9.87
2022-12-20T18:12:19.337Z,9.92
2022-12-20T18:14:49.657Z,9.89
2022-12-20T18:17:17.786Z,9.89
2022-12-20T18:19:45.862Z,9.90
2022-12-20T18:22:14.203Z,9.89
2022-12-20T18:24:43.426Z,9.86
2022-12-20T18:27:12.390Z,9.84
2022-12-20T18:29:40.236Z,9.82
2022-12-20T18:32:08.208Z,9.82
2022-12-20T18:34:36.692Z,9.80
2022-12-20T18:37:05.765Z,9.81
2022-12-20T18:39:34.207Z,9.78
2022-12-20T18:42:03.625Z,9.80
2022-12-20T18:44:35.770Z,9.80
2022-12-20T18:47:04.648Z,9.81
2022-12-20T18:49:33.200Z,9.77
2022-12-20T18:52:01.155Z,9.76
2022-12-20T18:54:35.141Z,9.74
2022-12-20T18:57:06.602Z,9.80
2022-12-20T18:59:34.874Z,9.81
2022-12-20T19:02:04.020Z,9.76
2022-12-20T19:04:33.060Z,9.74
2022-12-20T19:07:03.009Z,9.73
2022-12-20T19:09:33.196Z,9.71
2022-12-20T19:12:01.230Z,9.71
2022-12-20T19:14:32.448Z,9.69
2022-12-20T19:17:00.512Z,9.66
2022-12-20T19:19:28.744Z,9.71
2022-12-20T19:21:57.709Z,9.74
2022-12-20T19:24:25.738Z,9.65
2022-12-20T19:26:55.188Z,9.68
2022-12-20T19:29:23.289Z,9.62
2022-12-20T19:31:52.771Z,9.57
2022-12-20T19:34:22.132Z,9.51
2022-12-20T19:36:51.777Z,9.48
2022-12-20T19:39:22.223Z,9.51
2022-12-20T19:42:21.767Z,9.36
2022-12-20T19:44:40.366Z,9.41
2022-12-20T19:47:09.608Z,9.35
2022-12-20T19:49:39.323Z,9.34
2022-12-20T19:52:07.797Z,9.35
2022-12-20T19:54:36.643Z,9.23
2022-12-20T19:57:05.028Z,9.24
2022-12-20T19:59:33.519Z,9.19
2022-12-20T20:02:01.768Z,9.16
2022-12-20T20:04:31.338Z,9.09
2022-12-20T20:06:59.306Z,9.05
2022-12-20T20:09:27.241Z,9.06
2022-12-20T20:11:57.827Z,9.09
2022-12-20T20:14:26.148Z,9.07
2022-12-20T20:16:54.699Z,9.12
2022-12-20T20:19:22.639Z,9.10
2022-12-20T20:21:53.176Z,9.06
2022-12-20T20:24:21.158Z,9.10
2022-12-20T20:26:50.064Z,9.11
2022-12-20T20:29:33.336Z,9.08
2022-12-20T20:32:15.273Z,9.09
2022-12-20T20:34:50.433Z,9.09
2022-12-20T20:37:19.879Z,9.08
2022-12-20T20:39:47.942Z,9.09
2022-12-20T20:42:22.948Z,9.08
2022-12-20T20:44:52.275Z,9.06
2022-12-20T20:47:20.615Z,9.05
2022-12-20T20:49:48.566Z,8.96
2022-12-20T20:52:16.693Z,9.03
2022-12-20T20:54:46.145Z,9.00
2022-12-20T20:57:15.029Z,9.00
2022-12-20T20:59:44.353Z,8.97
2022-12-20T21:02:14.301Z,9.03
2022-12-20T21:04:42.323Z,8.98
2022-12-20T21:07:10.159Z,8.97
2022-12-20T21:09:38.959Z,8.85
2022-12-20T21:12:08.512Z,8.90
2022-12-20T21:15:12.634Z,8.88
2022-12-20T21:17:24.798Z,8.89
2022-12-20T21:19:52.611Z,8.88
2022-12-20T21:22:20.530Z,8.83
2022-12-20T21:24:48.711Z,8.82
2022-12-20T21:27:18.067Z,8.82
2022-12-20T21:29:46.014Z,8.80
2022-12-20T21:32:14.021Z,8.76
2022-12-20T21:34:41.892Z,8.77
2022-12-20T21:37:12.954Z,8.73
2022-12-20T21:39:40.899Z,8.71
2022-12-20T21:42:09.994Z,8.78
2022-12-20T21:44:41.373Z,8.88
2022-12-20T21:47:11.344Z,8.76
2022-12-20T21:49:40.620Z,8.78
2022-12-20T21:52:08.789Z,8.75
2022-12-20T21:54:36.689Z,8.69
2022-12-20T21:57:04.710Z,8.59
2022-12-20T21:59:32.658Z,8.59
2022-12-20T22:02:02.166Z,8.54
2022-12-20T22:04:31.848Z,8.55
2022-12-20T22:06:59.936Z,8.52
2022-12-20T22:09:28.046Z,8.57
2022-12-20T22:11:57.505Z,8.53
2022-12-20T22:14:26.019Z,8.54
2022-12-20T22:16:54.780Z,8.58
2022-12-20T22:19:24.293Z,8.55
2022-12-20T22:21:58.044Z,8.55
2022-12-20T22:24:26.618Z,8.59
2022-12-20T22:26:54.755Z,8.44
2022-12-20T22:29:22.761Z,8.40
2022-12-20T22:31:52.650Z,8.42
2022-12-20T22:34:22.063Z,8.45
2022-12-20T22:36:51.422Z,8.46
2022-12-20T22:39:19.395Z,8.44
2022-12-20T22:41:47.655Z,8.41
2022-12-20T22:44:17.867Z,8.39
2022-12-20T22:46:45.834Z,8.33
2022-12-20T22:49:18.227Z,8.29
2022-12-20T22:51:57.679Z,8.27
2022-12-20T22:54:35.712Z,8.36
2022-12-20T22:57:03.881Z,8.29
2022-12-20T22:59:32.550Z,8.31
2022-12-20T23:02:00.650Z,8.33
2022-12-20T23:04:29.967Z,8.26
2022-12-20T23:06:57.910Z,8.27
2022-12-20T23:09:29.709Z,8.25
2022-12-20T23:12:17.448Z,8.20
2022-12-20T23:15:04.371Z,8.23
2022-12-20T23:17:33.543Z,8.16
2022-12-20T23:20:19.020Z,8.13
2022-12-20T23:22:46.903Z,8.08
2022-12-20T23:25:16.605Z,8.07
2022-12-20T23:27:47.650Z,8.06
2022-12-20T23:30:17.929Z,8.08
2022-12-20T23:32:45.958Z,8.08
2022-12-20T23:35:15.222Z,7.98
2022-12-20T23:37:46.042Z,7.91
2022-12-20T23:40:18.357Z,7.84
2022-12-20T23:42:47.529Z,7.87
2022-12-20T23:45:15.653Z,7.85
2022-12-20T23:47:43.781Z,7.80
2022-12-20T23:50:12.232Z,7.76
2022-12-20T23:52:40.692Z,7.77
2022-12-20T23:55:09.505Z,7.75
2022-12-20T23:57:38.005Z,7.72
